sensor_id;sensor_type;location;lat;lon;timestamp;P1;durP1;ratioP1;P2;durP2;ratioP2
34064;SDS011;20339;49.754;20.158;2023-05-07T00:01:45;16.40;;;12.80;;
34064;SDS011;20339;49.754;20.158;2023-05-07T00:04:16;15.30;;;11.70;;
34064;SDS011;20339;49.754;20.158;2023-05-07T00:06:48;16.80;;;13.50;;
34064;SDS011;20339;49.754;20.158;2023-05-07T00:09:19;13.60;;;12.20;;
34064;SDS011;20339;49.754;20.158;2023-05-07T00:11:50;13.60;;;11.80;;
34064;SDS011;20339;49.754;20.158;2023-05-07T00:14:22;15.10;;;11.60;;
34064;SDS011;20339;49.754;20.158;2023-05-07T00:16:55;15.40;;;12.90;;
34064;SDS011;20339;49.754;20.158;2023-05-07T00:19:26;15.80;;;14.10;;
34064;SDS011;20339;49.754;20.158;2023-05-07T00:21:57;13.50;;;11.10;;
34064;SDS011;20339;49.754;20.158;2023-05-07T00:24:28;14.30;;;12.70;;
34064;SDS011;20339;49.754;20.158;2023-05-07T00:26:59;15.90;;;12.40;;
34064;SDS011;20339;49.754;20.158;2023-05-07T00:29:31;12.50;;;11.20;;
34064;SDS011;20339;49.754;20.158;2023-05-07T00:32:04;14.80;;;12.70;;
34064;SDS011;20339;49.754;20.158;2023-05-07T00:34:35;15.40;;;12.70;;
34064;SDS011;20339;49.754;20.158;2023-05-07T00:37:08;13.80;;;11.70;;
34064;SDS011;20339;49.754;20.158;2023-05-07T00:39:40;14.60;;;12.70;;
34064;SDS011;20339;49.754;20.158;2023-05-07T00:42:13;14.50;;;12.40;;
34064;SDS011;20339;49.754;20.158;2023-05-07T00:44:44;14.10;;;12.50;;
34064;SDS011;20339;49.754;20.158;2023-05-07T00:47:15;15.50;;;13.70;;
34064;SDS011;20339;49.754;20.158;2023-05-07T00:49:46;16.90;;;14.00;;
34064;SDS011;20339;49.754;20.158;2023-05-07T00:52:18;16.60;;;13.20;;
34064;SDS011;20339;49.754;20.158;2023-05-07T00:54:51;16.90;;;13.70;;
34064;SDS011;20339;49.754;20.158;2023-05-07T00:57:24;17.40;;;14.40;;
34064;SDS011;20339;49.754;20.158;2023-05-07T00:59:55;15.80;;;13.70;;
34064;SDS011;20339;49.754;20.158;2023-05-07T01:02:26;17.30;;;14.70;;
34064;SDS011;20339;49.754;20.158;2023-05-07T01:04:57;16.80;;;14.20;;
34064;SDS011;20339;49.754;20.158;2023-05-07T01:07:29;16.50;;;13.50;;
34064;SDS011;20339;49.754;20.158;2023-05-07T01:10:01;17.20;;;14.40;;
34064;SDS011;20339;49.754;20.158;2023-05-07T01:12:34;15.20;;;11.20;;
34064;SDS011;20339;49.754;20.158;2023-05-07T01:15:07;13.80;;;11.20;;
34064;SDS011;20339;49.754;20.158;2023-05-07T01:17:39;13.70;;;11.80;;
34064;SDS011;20339;49.754;20.158;2023-05-07T01:20:11;14.80;;;12.90;;
34064;SDS011;20339;49.754;20.158;2023-05-07T01:22:43;14.50;;;12.70;;
34064;SDS011;20339;49.754;20.158;2023-05-07T01:25:14;14.20;;;12.30;;
34064;SDS011;20339;49.754;20.158;2023-05-07T01:27:46;14.10;;;12.70;;
34064;SDS011;20339;49.754;20.158;2023-05-07T01:30:17;12.80;;;10.90;;
34064;SDS011;20339;49.754;20.158;2023-05-07T01:32:50;11.70;;;10.30;;
34064;SDS011;20339;49.754;20.158;2023-05-07T01:35:26;10.90;;;9.70;;
34064;SDS011;20339;49.754;20.158;2023-05-07T01:37:59;12.70;;;9.90;;
34064;SDS011;20339;49.754;20.158;2023-05-07T01:40:34;8.60;;;7.30;;
34064;SDS011;20339;49.754;20.158;2023-05-07T01:43:05;10.80;;;8.50;;
34064;SDS011;20339;49.754;20.158;2023-05-07T01:45:36;9.80;;;8.10;;
34064;SDS011;20339;49.754;20.158;2023-05-07T01:48:10;11.00;;;8.20;;
34064;SDS011;20339;49.754;20.158;2023-05-07T01:50:41;13.40;;;10.30;;
34064;SDS011;20339;49.754;20.158;2023-05-07T01:53:13;13.40;;;11.10;;
34064;SDS011;20339;49.754;20.158;2023-05-07T01:55:44;14.30;;;11.50;;
34064;SDS011;20339;49.754;20.158;2023-05-07T01:58:15;13.40;;;11.50;;
34064;SDS011;20339;49.754;20.158;2023-05-07T02:00:46;12.50;;;11.20;;
34064;SDS011;20339;49.754;20.158;2023-05-07T02:03:17;13.10;;;11.00;;
34064;SDS011;20339;49.754;20.158;2023-05-07T02:05:48;11.90;;;10.20;;
34064;SDS011;20339;49.754;20.158;2023-05-07T02:08:19;11.90;;;9.80;;
34064;SDS011;20339;49.754;20.158;2023-05-07T02:10:50;12.30;;;10.60;;
34064;SDS011;20339;49.754;20.158;2023-05-07T02:13:21;11.50;;;8.70;;
34064;SDS011;20339;49.754;20.158;2023-05-07T02:15:53;11.10;;;9.90;;
34064;SDS011;20339;49.754;20.158;2023-05-07T02:18:24;13.10;;;10.80;;
34064;SDS011;20339;49.754;20.158;2023-05-07T02:20:55;11.30;;;7.30;;
34064;SDS011;20339;49.754;20.158;2023-05-07T02:23:26;9.80;;;6.50;;
34064;SDS011;20339;49.754;20.158;2023-05-07T02:25:57;9.20;;;6.60;;
34064;SDS011;20339;49.754;20.158;2023-05-07T02:28:28;10.60;;;8.70;;
34064;SDS011;20339;49.754;20.158;2023-05-07T02:30:59;8.60;;;7.10;;
34064;SDS011;20339;49.754;20.158;2023-05-07T02:33:31;8.70;;;6.70;;
34064;SDS011;20339;49.754;20.158;2023-05-07T02:36:09;9.00;;;7.90;;
34064;SDS011;20339;49.754;20.158;2023-05-07T02:38:41;7.70;;;6.60;;
34064;SDS011;20339;49.754;20.158;2023-05-07T02:41:12;9.50;;;7.50;;
34064;SDS011;20339;49.754;20.158;2023-05-07T02:43:43;9.40;;;7.90;;
34064;SDS011;20339;49.754;20.158;2023-05-07T02:46:13;8.90;;;7.70;;
34064;SDS011;20339;49.754;20.158;2023-05-07T02:48:45;8.70;;;7.30;;
34064;SDS011;20339;49.754;20.158;2023-05-07T02:51:16;10.30;;;8.30;;
34064;SDS011;20339;49.754;20.158;2023-05-07T02:53:48;9.70;;;8.70;;
34064;SDS011;20339;49.754;20.158;2023-05-07T02:56:19;9.50;;;8.50;;
34064;SDS011;20339;49.754;20.158;2023-05-07T02:58:50;8.90;;;7.80;;
34064;SDS011;20339;49.754;20.158;2023-05-07T03:01:21;10.30;;;8.90;;
34064;SDS011;20339;49.754;20.158;2023-05-07T03:03:53;11.10;;;10.00;;
34064;SDS011;20339;49.754;20.158;2023-05-07T03:06:25;10.90;;;9.10;;
34064;SDS011;20339;49.754;20.158;2023-05-07T03:08:55;12.70;;;9.90;;
34064;SDS011;20339;49.754;20.158;2023-05-07T03:11:26;12.50;;;10.60;;
34064;SDS011;20339;49.754;20.158;2023-05-07T03:13:57;12.50;;;11.20;;
34064;SDS011;20339;49.754;20.158;2023-05-07T03:16:29;14.00;;;12.10;;
34064;SDS011;20339;49.754;20.158;2023-05-07T03:19:00;14.80;;;13.20;;
34064;SDS011;20339;49.754;20.158;2023-05-07T03:21:31;15.00;;;13.40;;
34064;SDS011;20339;49.754;20.158;2023-05-07T03:24:02;16.50;;;14.20;;
34064;SDS011;20339;49.754;20.158;2023-05-07T03:26:33;16.80;;;15.00;;
34064;SDS011;20339;49.754;20.158;2023-05-07T03:29:04;17.70;;;16.00;;
34064;SDS011;20339;49.754;20.158;2023-05-07T03:31:35;17.10;;;15.40;;
34064;SDS011;20339;49.754;20.158;2023-05-07T03:34:06;15.60;;;13.90;;
34064;SDS011;20339;49.754;20.158;2023-05-07T03:36:37;18.20;;;16.50;;
34064;SDS011;20339;49.754;20.158;2023-05-07T03:39:08;17.20;;;15.40;;
34064;SDS011;20339;49.754;20.158;2023-05-07T03:41:39;16.70;;;15.00;;
34064;SDS011;20339;49.754;20.158;2023-05-07T03:44:10;17.60;;;15.90;;
34064;SDS011;20339;49.754;20.158;2023-05-07T03:46:41;18.20;;;16.30;;
34064;SDS011;20339;49.754;20.158;2023-05-07T03:49:11;16.50;;;14.80;;
34064;SDS011;20339;49.754;20.158;2023-05-07T03:51:42;17.30;;;15.50;;
34064;SDS011;20339;49.754;20.158;2023-05-07T03:54:13;18.70;;;16.80;;
34064;SDS011;20339;49.754;20.158;2023-05-07T03:56:44;18.70;;;16.70;;
34064;SDS011;20339;49.754;20.158;2023-05-07T03:59:15;20.00;;;17.00;;
34064;SDS011;20339;49.754;20.158;2023-05-07T04:01:46;20.70;;;18.70;;
34064;SDS011;20339;49.754;20.158;2023-05-07T04:04:17;20.70;;;16.70;;
34064;SDS011;20339;49.754;20.158;2023-05-07T04:06:49;22.20;;;19.80;;
34064;SDS011;20339;49.754;20.158;2023-05-07T04:09:20;21.30;;;19.00;;
34064;SDS011;20339;49.754;20.158;2023-05-07T04:11:51;24.30;;;21.80;;
34064;SDS011;20339;49.754;20.158;2023-05-07T04:14:22;24.60;;;20.90;;
34064;SDS011;20339;49.754;20.158;2023-05-07T04:16:54;24.00;;;19.60;;
34064;SDS011;20339;49.754;20.158;2023-05-07T04:19:25;23.40;;;16.70;;
34064;SDS011;20339;49.754;20.158;2023-05-07T04:21:56;20.30;;;16.70;;
34064;SDS011;20339;49.754;20.158;2023-05-07T04:24:27;19.60;;;13.70;;
34064;SDS011;20339;49.754;20.158;2023-05-07T04:27:00;15.60;;;11.50;;
34064;SDS011;20339;49.754;20.158;2023-05-07T04:29:30;12.20;;;10.20;;
34064;SDS011;20339;49.754;20.158;2023-05-07T04:32:02;12.50;;;9.90;;
34064;SDS011;20339;49.754;20.158;2023-05-07T04:34:33;11.60;;;9.40;;
34064;SDS011;20339;49.754;20.158;2023-05-07T04:37:04;12.40;;;9.90;;
34064;SDS011;20339;49.754;20.158;2023-05-07T04:39:35;13.90;;;10.70;;
34064;SDS011;20339;49.754;20.158;2023-05-07T04:42:06;13.30;;;10.00;;
34064;SDS011;20339;49.754;20.158;2023-05-07T04:44:37;13.80;;;10.20;;
34064;SDS011;20339;49.754;20.158;2023-05-07T04:47:08;13.10;;;10.30;;
34064;SDS011;20339;49.754;20.158;2023-05-07T04:49:40;10.80;;;8.90;;
34064;SDS011;20339;49.754;20.158;2023-05-07T04:52:11;11.80;;;9.10;;
34064;SDS011;20339;49.754;20.158;2023-05-07T04:54:43;14.20;;;11.00;;
34064;SDS011;20339;49.754;20.158;2023-05-07T04:57:14;14.90;;;11.50;;
34064;SDS011;20339;49.754;20.158;2023-05-07T04:59:45;18.40;;;12.80;;
34064;SDS011;20339;49.754;20.158;2023-05-07T05:02:16;19.30;;;12.90;;
34064;SDS011;20339;49.754;20.158;2023-05-07T05:04:47;24.00;;;13.30;;
34064;SDS011;20339;49.754;20.158;2023-05-07T05:07:18;19.30;;;13.70;;
34064;SDS011;20339;49.754;20.158;2023-05-07T05:09:49;14.60;;;12.40;;
34064;SDS011;20339;49.754;20.158;2023-05-07T05:12:20;16.10;;;13.30;;
34064;SDS011;20339;49.754;20.158;2023-05-07T05:14:51;17.40;;;13.50;;
34064;SDS011;20339;49.754;20.158;2023-05-07T05:17:23;12.80;;;10.30;;
34064;SDS011;20339;49.754;20.158;2023-05-07T05:19:54;13.40;;;11.20;;
34064;SDS011;20339;49.754;20.158;2023-05-07T05:22:25;14.40;;;11.20;;
34064;SDS011;20339;49.754;20.158;2023-05-07T05:24:57;12.70;;;10.10;;
34064;SDS011;20339;49.754;20.158;2023-05-07T05:27:29;11.30;;;9.60;;
34064;SDS011;20339;49.754;20.158;2023-05-07T05:30:00;9.90;;;8.40;;
34064;SDS011;20339;49.754;20.158;2023-05-07T05:32:31;10.10;;;7.90;;
34064;SDS011;20339;49.754;20.158;2023-05-07T05:35:02;9.50;;;6.90;;
34064;SDS011;20339;49.754;20.158;2023-05-07T05:37:34;8.90;;;6.70;;
34064;SDS011;20339;49.754;20.158;2023-05-07T05:40:09;9.40;;;7.10;;
34064;SDS011;20339;49.754;20.158;2023-05-07T05:42:41;10.10;;;7.00;;
34064;SDS011;20339;49.754;20.158;2023-05-07T05:45:12;7.60;;;6.30;;
34064;SDS011;20339;49.754;20.158;2023-05-07T05:47:44;8.30;;;6.20;;
34064;SDS011;20339;49.754;20.158;2023-05-07T05:50:15;22.80;;;17.30;;
34064;SDS011;20339;49.754;20.158;2023-05-07T05:52:47;13.70;;;11.90;;
34064;SDS011;20339;49.754;20.158;2023-05-07T05:55:18;7.80;;;6.80;;
34064;SDS011;20339;49.754;20.158;2023-05-07T05:57:49;8.70;;;6.90;;
34064;SDS011;20339;49.754;20.158;2023-05-07T06:00:21;8.40;;;7.00;;
34064;SDS011;20339;49.754;20.158;2023-05-07T06:02:53;8.20;;;6.60;;
34064;SDS011;20339;49.754;20.158;2023-05-07T06:05:24;36.30;;;23.10;;
34064;SDS011;20339;49.754;20.158;2023-05-07T06:07:55;23.10;;;15.30;;
34064;SDS011;20339;49.754;20.158;2023-05-07T06:10:27;24.00;;;17.50;;
34064;SDS011;20339;49.754;20.158;2023-05-07T06:12:59;11.30;;;9.00;;
34064;SDS011;20339;49.754;20.158;2023-05-07T06:15:31;8.60;;;6.80;;
34064;SDS011;20339;49.754;20.158;2023-05-07T06:18:03;6.70;;;5.00;;
34064;SDS011;20339;49.754;20.158;2023-05-07T06:20:34;18.80;;;11.50;;
34064;SDS011;20339;49.754;20.158;2023-05-07T06:23:05;7.70;;;5.50;;
34064;SDS011;20339;49.754;20.158;2023-05-07T06:25:36;6.20;;;5.30;;
34064;SDS011;20339;49.754;20.158;2023-05-07T06:28:08;4.30;;;3.80;;
34064;SDS011;20339;49.754;20.158;2023-05-07T06:30:39;3.30;;;3.00;;
34064;SDS011;20339;49.754;20.158;2023-05-07T06:33:10;13.00;;;10.20;;
34064;SDS011;20339;49.754;20.158;2023-05-07T06:35:42;20.10;;;16.10;;
34064;SDS011;20339;49.754;20.158;2023-05-07T06:38:13;10.00;;;8.40;;
34064;SDS011;20339;49.754;20.158;2023-05-07T06:40:45;10.70;;;8.30;;
34064;SDS011;20339;49.754;20.158;2023-05-07T06:43:19;8.30;;;6.10;;
34064;SDS011;20339;49.754;20.158;2023-05-07T06:45:50;3.50;;;3.10;;
34064;SDS011;20339;49.754;20.158;2023-05-07T06:48:21;2.60;;;2.40;;
34064;SDS011;20339;49.754;20.158;2023-05-07T06:50:55;2.30;;;2.10;;
34064;SDS011;20339;49.754;20.158;2023-05-07T06:53:36;2.50;;;2.30;;
34064;SDS011;20339;49.754;20.158;2023-05-07T06:56:12;2.40;;;2.20;;
34064;SDS011;20339;49.754;20.158;2023-05-07T06:58:43;2.10;;;1.90;;
34064;SDS011;20339;49.754;20.158;2023-05-07T07:01:14;1.50;;;1.40;;
34064;SDS011;20339;49.754;20.158;2023-05-07T07:03:45;4.70;;;1.40;;
34064;SDS011;20339;49.754;20.158;2023-05-07T07:06:17;1.10;;;1.00;;
34064;SDS011;20339;49.754;20.158;2023-05-07T07:08:48;1.00;;;0.80;;
34064;SDS011;20339;49.754;20.158;2023-05-07T07:11:18;1.10;;;0.90;;
34064;SDS011;20339;49.754;20.158;2023-05-07T07:13:49;1.20;;;1.10;;
34064;SDS011;20339;49.754;20.158;2023-05-07T07:16:22;1.40;;;1.30;;
34064;SDS011;20339;49.754;20.158;2023-05-07T07:18:53;1.30;;;0.80;;
34064;SDS011;20339;49.754;20.158;2023-05-07T07:21:24;1.70;;;1.60;;
34064;SDS011;20339;49.754;20.158;2023-05-07T07:23:55;1.50;;;1.40;;
34064;SDS011;20339;49.754;20.158;2023-05-07T07:26:26;1.80;;;1.50;;
34064;SDS011;20339;49.754;20.158;2023-05-07T07:28:58;2.50;;;1.60;;
34064;SDS011;20339;49.754;20.158;2023-05-07T07:31:29;2.40;;;1.40;;
34064;SDS011;20339;49.754;20.158;2023-05-07T07:34:00;1.50;;;1.40;;
34064;SDS011;20339;49.754;20.158;2023-05-07T07:36:49;2.20;;;1.90;;
34064;SDS011;20339;49.754;20.158;2023-05-07T07:39:40;3.00;;;1.90;;
34064;SDS011;20339;49.754;20.158;2023-05-07T07:42:15;3.30;;;2.50;;
34064;SDS011;20339;49.754;20.158;2023-05-07T07:44:46;4.10;;;2.60;;
34064;SDS011;20339;49.754;20.158;2023-05-07T07:47:19;2.80;;;1.90;;
34064;SDS011;20339;49.754;20.158;2023-05-07T07:49:51;1.90;;;1.70;;
34064;SDS011;20339;49.754;20.158;2023-05-07T07:52:30;1.30;;;1.20;;
34064;SDS011;20339;49.754;20.158;2023-05-07T07:55:03;2.50;;;1.70;;
34064;SDS011;20339;49.754;20.158;2023-05-07T07:57:42;2.50;;;1.60;;
34064;SDS011;20339;49.754;20.158;2023-05-07T08:00:16;3.10;;;2.20;;
34064;SDS011;20339;49.754;20.158;2023-05-07T08:02:50;1.90;;;1.80;;
34064;SDS011;20339;49.754;20.158;2023-05-07T08:05:25;1.60;;;1.50;;
34064;SDS011;20339;49.754;20.158;2023-05-07T08:07:59;1.80;;;1.20;;
34064;SDS011;20339;49.754;20.158;2023-05-07T08:10:30;1.60;;;1.10;;
34064;SDS011;20339;49.754;20.158;2023-05-07T08:13:06;1.20;;;1.10;;
34064;SDS011;20339;49.754;20.158;2023-05-07T08:15:38;1.20;;;1.10;;
34064;SDS011;20339;49.754;20.158;2023-05-07T08:18:10;2.60;;;1.50;;
34064;SDS011;20339;49.754;20.158;2023-05-07T08:20:42;1.50;;;1.20;;
34064;SDS011;20339;49.754;20.158;2023-05-07T08:23:14;1.70;;;1.40;;
34064;SDS011;20339;49.754;20.158;2023-05-07T08:25:48;1.90;;;1.40;;
34064;SDS011;20339;49.754;20.158;2023-05-07T08:28:25;1.60;;;1.30;;
34064;SDS011;20339;49.754;20.158;2023-05-07T08:30:59;1.60;;;1.50;;
34064;SDS011;20339;49.754;20.158;2023-05-07T08:33:33;2.50;;;1.90;;
34064;SDS011;20339;49.754;20.158;2023-05-07T08:36:09;2.20;;;1.80;;
34064;SDS011;20339;49.754;20.158;2023-05-07T08:38:40;1.70;;;1.60;;
34064;SDS011;20339;49.754;20.158;2023-05-07T08:41:16;2.10;;;1.90;;
34064;SDS011;20339;49.754;20.158;2023-05-07T08:43:49;2.20;;;1.70;;
34064;SDS011;20339;49.754;20.158;2023-05-07T08:46:21;2.30;;;2.10;;
34064;SDS011;20339;49.754;20.158;2023-05-07T08:48:55;2.80;;;1.80;;
34064;SDS011;20339;49.754;20.158;2023-05-07T08:51:26;2.50;;;2.00;;
34064;SDS011;20339;49.754;20.158;2023-05-07T08:54:00;2.10;;;1.80;;
34064;SDS011;20339;49.754;20.158;2023-05-07T08:56:33;2.70;;;2.20;;
34064;SDS011;20339;49.754;20.158;2023-05-07T08:59:04;2.50;;;2.30;;
34064;SDS011;20339;49.754;20.158;2023-05-07T09:01:37;2.60;;;1.90;;
34064;SDS011;20339;49.754;20.158;2023-05-07T09:04:09;2.30;;;1.80;;
34064;SDS011;20339;49.754;20.158;2023-05-07T09:06:41;2.00;;;1.70;;
34064;SDS011;20339;49.754;20.158;2023-05-07T09:09:13;1.90;;;1.60;;
34064;SDS011;20339;49.754;20.158;2023-05-07T09:11:49;2.20;;;1.80;;
34064;SDS011;20339;49.754;20.158;2023-05-07T09:14:28;1.70;;;1.60;;
34064;SDS011;20339;49.754;20.158;2023-05-07T09:17:00;3.60;;;1.70;;
34064;SDS011;20339;49.754;20.158;2023-05-07T09:19:32;1.50;;;1.20;;
34064;SDS011;20339;49.754;20.158;2023-05-07T09:22:04;2.20;;;1.30;;
34064;SDS011;20339;49.754;20.158;2023-05-07T09:24:36;1.10;;;0.90;;
34064;SDS011;20339;49.754;20.158;2023-05-07T09:27:08;3.70;;;2.30;;
34064;SDS011;20339;49.754;20.158;2023-05-07T09:29:41;2.30;;;1.90;;
34064;SDS011;20339;49.754;20.158;2023-05-07T09:32:15;4.30;;;2.60;;
34064;SDS011;20339;49.754;20.158;2023-05-07T09:34:47;6.40;;;3.70;;
34064;SDS011;20339;49.754;20.158;2023-05-07T09:37:19;8.40;;;4.50;;
34064;SDS011;20339;49.754;20.158;2023-05-07T09:39:50;4.90;;;3.20;;
34064;SDS011;20339;49.754;20.158;2023-05-07T09:42:28;3.20;;;2.90;;
34064;SDS011;20339;49.754;20.158;2023-05-07T09:45:01;2.30;;;2.10;;
34064;SDS011;20339;49.754;20.158;2023-05-07T09:47:35;3.60;;;2.70;;
34064;SDS011;20339;49.754;20.158;2023-05-07T09:50:14;3.10;;;2.40;;
34064;SDS011;20339;49.754;20.158;2023-05-07T09:52:48;2.60;;;2.40;;
34064;SDS011;20339;49.754;20.158;2023-05-07T09:55:22;3.20;;;2.50;;
34064;SDS011;20339;49.754;20.158;2023-05-07T09:57:55;2.70;;;2.40;;
34064;SDS011;20339;49.754;20.158;2023-05-07T10:00:31;2.40;;;1.90;;
34064;SDS011;20339;49.754;20.158;2023-05-07T10:03:04;3.00;;;2.70;;
34064;SDS011;20339;49.754;20.158;2023-05-07T10:05:39;2.70;;;2.50;;
34064;SDS011;20339;49.754;20.158;2023-05-07T10:08:12;3.50;;;2.30;;
34064;SDS011;20339;49.754;20.158;2023-05-07T10:10:45;3.20;;;2.20;;
34064;SDS011;20339;49.754;20.158;2023-05-07T10:13:18;2.10;;;1.90;;
34064;SDS011;20339;49.754;20.158;2023-05-07T10:15:50;2.50;;;1.90;;
34064;SDS011;20339;49.754;20.158;2023-05-07T10:18:22;2.70;;;1.90;;
34064;SDS011;20339;49.754;20.158;2023-05-07T10:20:58;1.80;;;1.60;;
34064;SDS011;20339;49.754;20.158;2023-05-07T10:23:36;2.10;;;1.80;;
34064;SDS011;20339;49.754;20.158;2023-05-07T10:26:07;2.10;;;1.80;;
34064;SDS011;20339;49.754;20.158;2023-05-07T10:28:39;2.30;;;1.80;;
34064;SDS011;20339;49.754;20.158;2023-05-07T10:31:23;2.00;;;1.70;;
34064;SDS011;20339;49.754;20.158;2023-05-07T10:34:14;1.60;;;1.50;;
34064;SDS011;20339;49.754;20.158;2023-05-07T10:36:50;2.30;;;1.90;;
34064;SDS011;20339;49.754;20.158;2023-05-07T10:39:23;2.40;;;2.00;;
34064;SDS011;20339;49.754;20.158;2023-05-07T10:41:55;2.10;;;1.90;;
34064;SDS011;20339;49.754;20.158;2023-05-07T10:44:27;2.40;;;1.80;;
34064;SDS011;20339;49.754;20.158;2023-05-07T10:47:09;1.80;;;1.60;;
34064;SDS011;20339;49.754;20.158;2023-05-07T10:52:51;2.30;;;1.80;;
34064;SDS011;20339;49.754;20.158;2023-05-07T10:58:57;2.40;;;1.80;;
34064;SDS011;20339;49.754;20.158;2023-05-07T11:02:04;2.20;;;1.70;;
34064;SDS011;20339;49.754;20.158;2023-05-07T11:04:38;3.00;;;2.30;;
34064;SDS011;20339;49.754;20.158;2023-05-07T11:07:32;3.10;;;2.30;;
34064;SDS011;20339;49.754;20.158;2023-05-07T11:10:07;2.70;;;2.50;;
34064;SDS011;20339;49.754;20.158;2023-05-07T11:12:52;3.80;;;2.90;;
34064;SDS011;20339;49.754;20.158;2023-05-07T11:15:34;4.30;;;3.20;;
34064;SDS011;20339;49.754;20.158;2023-05-07T11:18:10;4.30;;;3.40;;
34064;SDS011;20339;49.754;20.158;2023-05-07T11:20:49;4.80;;;3.60;;
34064;SDS011;20339;49.754;20.158;2023-05-07T11:26:28;6.00;;;3.90;;
34064;SDS011;20339;49.754;20.158;2023-05-07T11:29:12;5.60;;;3.80;;
34064;SDS011;20339;49.754;20.158;2023-05-07T11:31:45;5.00;;;4.10;;
34064;SDS011;20339;49.754;20.158;2023-05-07T11:34:23;7.00;;;3.80;;
34064;SDS011;20339;49.754;20.158;2023-05-07T11:36:55;6.60;;;4.30;;
34064;SDS011;20339;49.754;20.158;2023-05-07T11:39:28;4.60;;;4.10;;
34064;SDS011;20339;49.754;20.158;2023-05-07T11:42:01;8.00;;;4.50;;
34064;SDS011;20339;49.754;20.158;2023-05-07T11:44:42;6.70;;;5.10;;
34064;SDS011;20339;49.754;20.158;2023-05-07T11:47:18;5.30;;;4.60;;
34064;SDS011;20339;49.754;20.158;2023-05-07T11:49:50;6.80;;;5.20;;
34064;SDS011;20339;49.754;20.158;2023-05-07T11:52:25;8.10;;;5.50;;
34064;SDS011;20339;49.754;20.158;2023-05-07T11:54:57;5.30;;;4.80;;
34064;SDS011;20339;49.754;20.158;2023-05-07T11:57:32;6.30;;;4.90;;
34064;SDS011;20339;49.754;20.158;2023-05-07T12:00:07;8.30;;;5.00;;
34064;SDS011;20339;49.754;20.158;2023-05-07T12:02:41;7.50;;;5.60;;
34064;SDS011;20339;49.754;20.158;2023-05-07T12:05:13;6.20;;;5.00;;
34064;SDS011;20339;49.754;20.158;2023-05-07T12:07:45;6.20;;;4.80;;
34064;SDS011;20339;49.754;20.158;2023-05-07T12:10:16;6.80;;;5.40;;
34064;SDS011;20339;49.754;20.158;2023-05-07T12:12:49;7.00;;;5.70;;
34064;SDS011;20339;49.754;20.158;2023-05-07T12:15:23;7.30;;;6.30;;
34064;SDS011;20339;49.754;20.158;2023-05-07T12:17:55;7.60;;;6.00;;
34064;SDS011;20339;49.754;20.158;2023-05-07T12:20:26;6.40;;;5.40;;
34064;SDS011;20339;49.754;20.158;2023-05-07T12:22:58;9.20;;;6.40;;
34064;SDS011;20339;49.754;20.158;2023-05-07T12:25:31;7.20;;;6.00;;
34064;SDS011;20339;49.754;20.158;2023-05-07T12:28:03;9.50;;;7.30;;
34064;SDS011;20339;49.754;20.158;2023-05-07T12:30:38;10.60;;;7.70;;
34064;SDS011;20339;49.754;20.158;2023-05-07T12:33:10;10.00;;;7.80;;
34064;SDS011;20339;49.754;20.158;2023-05-07T12:35:45;11.10;;;8.40;;
34064;SDS011;20339;49.754;20.158;2023-05-07T12:38:18;10.40;;;8.10;;
34064;SDS011;20339;49.754;20.158;2023-05-07T12:40:50;10.30;;;8.10;;
34064;SDS011;20339;49.754;20.158;2023-05-07T12:43:24;7.80;;;6.30;;
34064;SDS011;20339;49.754;20.158;2023-05-07T12:45:57;7.50;;;6.70;;
34064;SDS011;20339;49.754;20.158;2023-05-07T12:48:30;8.60;;;7.00;;
34064;SDS011;20339;49.754;20.158;2023-05-07T12:51:02;6.70;;;5.80;;
34064;SDS011;20339;49.754;20.158;2023-05-07T12:53:34;8.70;;;7.10;;
34064;SDS011;20339;49.754;20.158;2023-05-07T12:56:10;7.60;;;6.80;;
34064;SDS011;20339;49.754;20.158;2023-05-07T12:58:44;8.40;;;6.90;;
34064;SDS011;20339;49.754;20.158;2023-05-07T13:01:18;8.70;;;6.90;;
34064;SDS011;20339;49.754;20.158;2023-05-07T13:03:49;8.20;;;6.80;;
34064;SDS011;20339;49.754;20.158;2023-05-07T13:06:20;8.70;;;6.50;;
34064;SDS011;20339;49.754;20.158;2023-05-07T13:08:52;7.90;;;6.60;;
34064;SDS011;20339;49.754;20.158;2023-05-07T13:11:23;9.60;;;7.20;;
34064;SDS011;20339;49.754;20.158;2023-05-07T13:13:54;9.20;;;7.00;;
34064;SDS011;20339;49.754;20.158;2023-05-07T13:16:25;8.40;;;7.50;;
34064;SDS011;20339;49.754;20.158;2023-05-07T13:18:56;8.90;;;6.90;;
34064;SDS011;20339;49.754;20.158;2023-05-07T13:21:27;7.40;;;6.50;;
34064;SDS011;20339;49.754;20.158;2023-05-07T13:23:59;9.10;;;7.60;;
34064;SDS011;20339;49.754;20.158;2023-05-07T13:26:31;7.90;;;6.50;;
34064;SDS011;20339;49.754;20.158;2023-05-07T13:29:02;9.30;;;7.10;;
34064;SDS011;20339;49.754;20.158;2023-05-07T13:31:33;8.50;;;7.50;;
34064;SDS011;20339;49.754;20.158;2023-05-07T13:34:04;8.20;;;6.50;;
34064;SDS011;20339;49.754;20.158;2023-05-07T13:36:36;8.30;;;6.80;;
34064;SDS011;20339;49.754;20.158;2023-05-07T13:39:09;7.90;;;6.10;;
34064;SDS011;20339;49.754;20.158;2023-05-07T13:41:42;7.00;;;6.30;;
34064;SDS011;20339;49.754;20.158;2023-05-07T13:44:13;7.20;;;6.20;;
34064;SDS011;20339;49.754;20.158;2023-05-07T13:46:44;7.10;;;6.00;;
34064;SDS011;20339;49.754;20.158;2023-05-07T13:49:15;6.80;;;6.20;;
34064;SDS011;20339;49.754;20.158;2023-05-07T13:51:47;7.50;;;5.80;;
34064;SDS011;20339;49.754;20.158;2023-05-07T13:54:18;7.70;;;6.20;;
34064;SDS011;20339;49.754;20.158;2023-05-07T13:56:49;7.60;;;6.30;;
34064;SDS011;20339;49.754;20.158;2023-05-07T13:59:20;7.70;;;6.10;;
34064;SDS011;20339;49.754;20.158;2023-05-07T14:01:51;8.20;;;7.30;;
34064;SDS011;20339;49.754;20.158;2023-05-07T14:04:23;8.20;;;6.80;;
34064;SDS011;20339;49.754;20.158;2023-05-07T14:06:55;8.80;;;7.30;;
34064;SDS011;20339;49.754;20.158;2023-05-07T14:09:26;7.30;;;6.50;;
34064;SDS011;20339;49.754;20.158;2023-05-07T14:11:58;8.60;;;6.90;;
34064;SDS011;20339;49.754;20.158;2023-05-07T14:14:30;8.10;;;6.40;;
34064;SDS011;20339;49.754;20.158;2023-05-07T14:17:01;8.00;;;6.70;;
34064;SDS011;20339;49.754;20.158;2023-05-07T14:19:32;7.20;;;5.60;;
34064;SDS011;20339;49.754;20.158;2023-05-07T14:22:03;7.50;;;6.50;;
34064;SDS011;20339;49.754;20.158;2023-05-07T14:24:35;9.20;;;8.10;;
34064;SDS011;20339;49.754;20.158;2023-05-07T14:27:08;8.00;;;6.70;;
34064;SDS011;20339;49.754;20.158;2023-05-07T14:29:41;6.70;;;6.00;;
34064;SDS011;20339;49.754;20.158;2023-05-07T14:32:19;7.50;;;6.00;;
34064;SDS011;20339;49.754;20.158;2023-05-07T14:34:51;7.00;;;5.90;;
34064;SDS011;20339;49.754;20.158;2023-05-07T14:37:23;7.00;;;5.80;;
34064;SDS011;20339;49.754;20.158;2023-05-07T14:39:55;7.00;;;5.80;;
34064;SDS011;20339;49.754;20.158;2023-05-07T14:42:27;7.10;;;6.00;;
34064;SDS011;20339;49.754;20.158;2023-05-07T14:44:58;7.80;;;6.50;;
34064;SDS011;20339;49.754;20.158;2023-05-07T14:47:30;8.50;;;7.00;;
34064;SDS011;20339;49.754;20.158;2023-05-07T14:50:02;8.40;;;6.10;;
34064;SDS011;20339;49.754;20.158;2023-05-07T14:52:34;7.60;;;6.80;;
34064;SDS011;20339;49.754;20.158;2023-05-07T14:55:07;7.70;;;6.50;;
34064;SDS011;20339;49.754;20.158;2023-05-07T14:57:40;8.40;;;7.00;;
34064;SDS011;20339;49.754;20.158;2023-05-07T15:00:12;8.90;;;7.40;;
34064;SDS011;20339;49.754;20.158;2023-05-07T15:02:44;9.70;;;7.90;;
34064;SDS011;20339;49.754;20.158;2023-05-07T15:05:16;7.50;;;6.50;;
34064;SDS011;20339;49.754;20.158;2023-05-07T15:07:48;8.20;;;6.90;;